Terminal Aerodrome Forecast
Issued by NWS

Home | Current Version | Previous Version | Text Only | Print | Product List | Glossary Off
Versions: 1 2 3 4 5 6 7 8 9 10 11 12 13 14 15 16 17 18 19 20 21 22

672
FTUS43 KBIS 130220 AAA
TAFDIK
TAF AMD
KDIK 130220Z 1302/1324 13013KT P6SM -SN OVC028
     FM130500 14013KT 3SM -SN BR OVC015
     FM130900 15016KT 6SM -SN BR OVC015
     FM131200 15015KT P6SM OVC020
     FM131800 17014KT P6SM OVC015=

USA.gov is the U.S. government's official web portal to all federal, state and local government web resources and services.